الصفحة الرئيسية
METAR-TAF:

METAR-TAF

مطار :

غدامس, ليبيا

دائرة عرض: 30-08N, خط طول: 009-30E, ارتفاع: 346 متر

METAR: مفقودة

زمن: 19:46 (17:46 UTC)

توقعات

تاريخ ووقت الإصدار 12ساعات و 46 دقيقة قبل الساعة 05:00UTC
التوقعات صالحة من21 الساعة 06 UTC إلى 22 الساعة 06 UTC
ريح 12 عقدة من الشمال
الرؤية: 8000 متر
غيوم قليلة على ارتفاع 4000 قدم
غيوم مفككة على ارتفاع 9000 قدم

TAF: HLTD 210500Z 2106/2206 36012KT 8000 FEW040 BKN090

أرصاد الطقس والتوقعات من أكثر من 4000 مطار (تقارير الطقس للمطار METAR والتنبؤ بالطقس بالمطارTAF).

المحطات المتاحة هي النقط الصفراء والحمراء على الخريطة.

حرك المؤشر فوق النقطة لمعرفة اسم المحطة.

ثم انقر لمعرفة أرصاد وتوقعات الطقس.

لتغيير الخارطة: اضغط على الأزرار الخضراء مع رمز الصليب الأسود للتكبير. على الزر الأخضر مع شرطة للتصغير، أو على الأسهم الخضراء للخرائط المجاورة.


METAR-TAF: